Terminal Aerodrome Forecast
Issued by NWS Cleveland, OH

Home | Current Version | Previous Version | Graphics & Text | Print | Product List | Glossary Off
Versions: 1 2 3 4 5 6 7 8 9 10 11 12 13 14 15 16 17 18 19 20

243
FTUS41 KCLE 261329 AAA
TAFCAK
TAF AMD
KCAK 261329Z 2613/2712 28006KT P6SM SCT012
     FM261600 31006KT P6SM SCT045
     FM270600 VRB03KT P6SM SCT120=

USA.gov is the U.S. government's official web portal to all federal, state and local government web resources and services.